sensor_id;sensor_type;location;lat;lon;timestamp;temperature;humidity
1417;DHT22;703;51.162;13.574;2022-10-04T00:00:37;12.50;99.90
1417;DHT22;703;51.162;13.574;2022-10-04T00:03:12;12.60;99.90
1417;DHT22;703;51.162;13.574;2022-10-04T00:05:43;12.70;99.90
1417;DHT22;703;51.162;13.574;2022-10-04T00:08:24;12.50;99.90
1417;DHT22;703;51.162;13.574;2022-10-04T00:11:14;12.50;99.90
1417;DHT22;703;51.162;13.574;2022-10-04T00:13:48;12.50;99.90
1417;DHT22;703;51.162;13.574;2022-10-04T00:16:28;12.50;99.90
1417;DHT22;703;51.162;13.574;2022-10-04T00:24:28;12.50;99.90
1417;DHT22;703;51.162;13.574;2022-10-04T00:27:23;12.50;99.90
1417;DHT22;703;51.162;13.574;2022-10-04T00:30:21;12.50;99.90
1417;DHT22;703;51.162;13.574;2022-10-04T00:33:01;12.50;99.90
1417;DHT22;703;51.162;13.574;2022-10-04T00:38:00;16.20;99.90
1417;DHT22;703;51.162;13.574;2022-10-04T00:40:33;12.50;99.90
1417;DHT22;703;51.162;13.574;2022-10-04T00:43:45;12.50;99.90
1417;DHT22;703;51.162;13.574;2022-10-04T00:46:09;12.40;99.90
1417;DHT22;703;51.162;13.574;2022-10-04T00:48:43;13.70;99.90
1417;DHT22;703;51.162;13.574;2022-10-04T00:54:00;12.40;99.90
1417;DHT22;703;51.162;13.574;2022-10-04T00:59:12;12.40;99.90
1417;DHT22;703;51.162;13.574;2022-10-04T01:01:43;12.40;99.90
1417;DHT22;703;51.162;13.574;2022-10-04T01:04:23;15.80;99.90
1417;DHT22;703;51.162;13.574;2022-10-04T01:06:51;12.30;99.90
1417;DHT22;703;51.162;13.574;2022-10-04T01:09:18;12.30;99.90
1417;DHT22;703;51.162;13.574;2022-10-04T01:11:51;12.30;99.90
1417;DHT22;703;51.162;13.574;2022-10-04T01:17:07;12.30;99.90
1417;DHT22;703;51.162;13.574;2022-10-04T01:19:33;12.30;99.90
1417;DHT22;703;51.162;13.574;2022-10-04T01:22:08;12.20;99.90
1417;DHT22;703;51.162;13.574;2022-10-04T01:24:40;12.30;99.90
1417;DHT22;703;51.162;13.574;2022-10-04T01:29:54;12.20;99.90
1417;DHT22;703;51.162;13.574;2022-10-04T01:32:20;12.20;99.90
1417;DHT22;703;51.162;13.574;2022-10-04T01:34:47;12.20;99.90
1417;DHT22;703;51.162;13.574;2022-10-04T01:37:13;12.20;99.90
1417;DHT22;703;51.162;13.574;2022-10-04T01:39:39;12.20;99.90
1417;DHT22;703;51.162;13.574;2022-10-04T01:42:11;12.20;99.90
1417;DHT22;703;51.162;13.574;2022-10-04T01:44:47;12.20;99.90
1417;DHT22;703;51.162;13.574;2022-10-04T01:47:25;12.20;99.90
1417;DHT22;703;51.162;13.574;2022-10-04T01:49:56;12.20;99.90
1417;DHT22;703;51.162;13.574;2022-10-04T01:52:34;12.20;99.90
1417;DHT22;703;51.162;13.574;2022-10-04T01:55:14;12.20;99.90
1417;DHT22;703;51.162;13.574;2022-10-04T01:57:51;12.20;99.90
1417;DHT22;703;51.162;13.574;2022-10-04T02:00:19;12.20;99.90
1417;DHT22;703;51.162;13.574;2022-10-04T02:05:28;12.20;99.90
1417;DHT22;703;51.162;13.574;2022-10-04T02:07:55;12.20;99.90
1417;DHT22;703;51.162;13.574;2022-10-04T02:10:22;16.10;99.90
1417;DHT22;703;51.162;13.574;2022-10-04T02:12:51;12.10;99.90
1417;DHT22;703;51.162;13.574;2022-10-04T02:15:20;12.10;99.90
1417;DHT22;703;51.162;13.574;2022-10-04T02:17:47;12.10;99.90
1417;DHT22;703;51.162;13.574;2022-10-04T02:20:25;12.10;99.90
1417;DHT22;703;51.162;13.574;2022-10-04T02:22:55;14.10;99.90
1417;DHT22;703;51.162;13.574;2022-10-04T02:25:23;12.00;99.90
1417;DHT22;703;51.162;13.574;2022-10-04T02:27:52;12.10;99.90
1417;DHT22;703;51.162;13.574;2022-10-04T02:30:21;12.00;99.90
1417;DHT22;703;51.162;13.574;2022-10-04T02:32:47;12.00;99.90
1417;DHT22;703;51.162;13.574;2022-10-04T02:35:23;15.20;99.90
1417;DHT22;703;51.162;13.574;2022-10-04T02:38:11;12.10;99.90
1417;DHT22;703;51.162;13.574;2022-10-04T02:41:01;12.00;99.90
1417;DHT22;703;51.162;13.574;2022-10-04T02:43:37;12.00;99.90
1417;DHT22;703;51.162;13.574;2022-10-04T02:46:22;12.00;99.90
1417;DHT22;703;51.162;13.574;2022-10-04T02:49:03;11.90;99.90
1417;DHT22;703;51.162;13.574;2022-10-04T02:56:52;11.90;99.90
1417;DHT22;703;51.162;13.574;2022-10-04T02:59:18;14.90;99.90
1417;DHT22;703;51.162;13.574;2022-10-04T03:01:50;11.80;99.90
1417;DHT22;703;51.162;13.574;2022-10-04T03:04:17;14.90;99.90
1417;DHT22;703;51.162;13.574;2022-10-04T03:06:46;11.90;99.90
1417;DHT22;703;51.162;13.574;2022-10-04T03:09:13;11.90;99.90
1417;DHT22;703;51.162;13.574;2022-10-04T03:11:39;11.90;99.90
1417;DHT22;703;51.162;13.574;2022-10-04T03:14:11;11.90;99.90
1417;DHT22;703;51.162;13.574;2022-10-04T03:16:41;11.80;99.90
1417;DHT22;703;51.162;13.574;2022-10-04T03:19:08;11.80;99.90
1417;DHT22;703;51.162;13.574;2022-10-04T03:21:36;11.90;99.90
1417;DHT22;703;51.162;13.574;2022-10-04T03:24:03;11.90;99.90
1417;DHT22;703;51.162;13.574;2022-10-04T03:26:44;11.90;99.90
1417;DHT22;703;51.162;13.574;2022-10-04T03:29:12;11.80;99.90
1417;DHT22;703;51.162;13.574;2022-10-04T03:31:46;11.80;99.90
1417;DHT22;703;51.162;13.574;2022-10-04T03:34:25;12.40;99.90
1417;DHT22;703;51.162;13.574;2022-10-04T03:36:54;13.70;99.90
1417;DHT22;703;51.162;13.574;2022-10-04T03:39:59;11.80;99.90
1417;DHT22;703;51.162;13.574;2022-10-04T03:42:28;11.80;99.90
1417;DHT22;703;51.162;13.574;2022-10-04T03:44:59;11.80;99.90
1417;DHT22;703;51.162;13.574;2022-10-04T03:47:29;11.80;99.90
1417;DHT22;703;51.162;13.574;2022-10-04T03:50:44;11.70;99.90
1417;DHT22;703;51.162;13.574;2022-10-04T03:52:54;11.70;99.90
1417;DHT22;703;51.162;13.574;2022-10-04T03:55:58;12.90;99.90
1417;DHT22;703;51.162;13.574;2022-10-04T03:58:18;11.80;99.90
1417;DHT22;703;51.162;13.574;2022-10-04T04:06:18;11.70;99.90
1417;DHT22;703;51.162;13.574;2022-10-04T04:08:48;11.80;99.90
1417;DHT22;703;51.162;13.574;2022-10-04T04:11:23;11.70;99.90
1417;DHT22;703;51.162;13.574;2022-10-04T04:14:02;11.70;99.90
1417;DHT22;703;51.162;13.574;2022-10-04T04:16:31;12.00;99.90
1417;DHT22;703;51.162;13.574;2022-10-04T04:19:02;11.60;99.90
1417;DHT22;703;51.162;13.574;2022-10-04T04:21:49;11.60;99.90
1417;DHT22;703;51.162;13.574;2022-10-04T04:24:24;11.70;99.90
1417;DHT22;703;51.162;13.574;2022-10-04T04:26:57;11.70;99.90
1417;DHT22;703;51.162;13.574;2022-10-04T04:29:33;11.70;99.90
1417;DHT22;703;51.162;13.574;2022-10-04T04:32:04;11.60;99.90
1417;DHT22;703;51.162;13.574;2022-10-04T04:34:43;11.60;99.90
1417;DHT22;703;51.162;13.574;2022-10-04T04:37:12;11.50;99.90
1417;DHT22;703;51.162;13.574;2022-10-04T04:39:38;11.50;99.90
1417;DHT22;703;51.162;13.574;2022-10-04T04:44:31;11.40;99.90
1417;DHT22;703;51.162;13.574;2022-10-04T04:46:58;11.40;99.90
1417;DHT22;703;51.162;13.574;2022-10-04T04:49:26;11.30;99.90
1417;DHT22;703;51.162;13.574;2022-10-04T04:51:53;11.20;99.90
1417;DHT22;703;51.162;13.574;2022-10-04T04:54:23;11.30;99.90
1417;DHT22;703;51.162;13.574;2022-10-04T04:57:24;15.30;99.90
1417;DHT22;703;51.162;13.574;2022-10-04T04:59:54;11.20;99.90
1417;DHT22;703;51.162;13.574;2022-10-04T05:02:32;11.20;99.90
1417;DHT22;703;51.162;13.574;2022-10-04T05:05:19;11.20;99.90
1417;DHT22;703;51.162;13.574;2022-10-04T05:07:46;11.20;99.90
1417;DHT22;703;51.162;13.574;2022-10-04T05:10:45;13.80;99.90
1417;DHT22;703;51.162;13.574;2022-10-04T05:13:14;11.00;99.90
1417;DHT22;703;51.162;13.574;2022-10-04T05:15:42;11.00;99.90
1417;DHT22;703;51.162;13.574;2022-10-04T05:18:23;10.90;99.90
1417;DHT22;703;51.162;13.574;2022-10-04T05:21:07;11.00;99.90
1417;DHT22;703;51.162;13.574;2022-10-04T05:23:36;10.90;99.90
1417;DHT22;703;51.162;13.574;2022-10-04T05:26:02;10.80;99.90
1417;DHT22;703;51.162;13.574;2022-10-04T05:28:29;10.80;99.90
1417;DHT22;703;51.162;13.574;2022-10-04T05:31:15;11.60;99.90
1417;DHT22;703;51.162;13.574;2022-10-04T05:33:54;10.80;99.90
1417;DHT22;703;51.162;13.574;2022-10-04T05:37:00;13.40;99.90
1417;DHT22;703;51.162;13.574;2022-10-04T05:42:52;10.90;99.90
1417;DHT22;703;51.162;13.574;2022-10-04T05:45:34;10.90;99.90
1417;DHT22;703;51.162;13.574;2022-10-04T05:48:26;11.00;99.90
1417;DHT22;703;51.162;13.574;2022-10-04T05:50:51;11.00;99.90
1417;DHT22;703;51.162;13.574;2022-10-04T05:53:29;11.10;99.90
1417;DHT22;703;51.162;13.574;2022-10-04T05:58:48;11.10;99.90
1417;DHT22;703;51.162;13.574;2022-10-04T06:05:10;11.10;99.90
1417;DHT22;703;51.162;13.574;2022-10-04T06:12:54;11.10;99.90
1417;DHT22;703;51.162;13.574;2022-10-04T06:18:22;11.50;99.90
1417;DHT22;703;51.162;13.574;2022-10-04T06:21:12;11.20;99.90
1417;DHT22;703;51.162;13.574;2022-10-04T06:23:50;11.20;99.90
1417;DHT22;703;51.162;13.574;2022-10-04T06:26:21;11.20;99.90
1417;DHT22;703;51.162;13.574;2022-10-04T06:29:51;11.30;99.90
1417;DHT22;703;51.162;13.574;2022-10-04T06:38:32;11.40;99.90
1417;DHT22;703;51.162;13.574;2022-10-04T06:44:12;11.50;99.90
1417;DHT22;703;51.162;13.574;2022-10-04T06:46:48;11.50;99.90
1417;DHT22;703;51.162;13.574;2022-10-04T06:49:38;11.50;99.90
1417;DHT22;703;51.162;13.574;2022-10-04T06:52:25;11.60;99.90
1417;DHT22;703;51.162;13.574;2022-10-04T06:58:03;11.70;99.90
1417;DHT22;703;51.162;13.574;2022-10-04T07:00:47;11.80;99.90
1417;DHT22;703;51.162;13.574;2022-10-04T07:03:21;11.90;99.90
1417;DHT22;703;51.162;13.574;2022-10-04T07:05:54;11.90;99.90
1417;DHT22;703;51.162;13.574;2022-10-04T07:13:56;12.10;99.90
1417;DHT22;703;51.162;13.574;2022-10-04T07:21:35;12.50;99.90
1417;DHT22;703;51.162;13.574;2022-10-04T07:24:02;12.60;99.90
1417;DHT22;703;51.162;13.574;2022-10-04T07:26:46;12.60;99.90
1417;DHT22;703;51.162;13.574;2022-10-04T07:29:22;12.70;99.90
1417;DHT22;703;51.162;13.574;2022-10-04T07:32:12;12.60;99.90
1417;DHT22;703;51.162;13.574;2022-10-04T07:35:01;12.70;99.90
1417;DHT22;703;51.162;13.574;2022-10-04T07:43:05;12.70;99.90
1417;DHT22;703;51.162;13.574;2022-10-04T07:45:34;12.80;99.90
1417;DHT22;703;51.162;13.574;2022-10-04T07:48:09;12.90;99.90
1417;DHT22;703;51.162;13.574;2022-10-04T07:53:38;13.20;99.90
1417;DHT22;703;51.162;13.574;2022-10-04T07:56:16;13.20;99.90
1417;DHT22;703;51.162;13.574;2022-10-04T07:58:51;13.30;99.90
1417;DHT22;703;51.162;13.574;2022-10-04T08:04:01;13.40;99.90
1417;DHT22;703;51.162;13.574;2022-10-04T08:06:34;13.70;99.90
1417;DHT22;703;51.162;13.574;2022-10-04T08:17:56;13.40;99.90
1417;DHT22;703;51.162;13.574;2022-10-04T08:26:44;13.60;99.90
1417;DHT22;703;51.162;13.574;2022-10-04T08:32:39;13.70;99.90
1417;DHT22;703;51.162;13.574;2022-10-04T08:35:58;13.60;99.90
1417;DHT22;703;51.162;13.574;2022-10-04T08:38:53;13.70;99.90
1417;DHT22;703;51.162;13.574;2022-10-04T08:50:24;13.70;99.90
1417;DHT22;703;51.162;13.574;2022-10-04T08:56:23;13.70;99.90
1417;DHT22;703;51.162;13.574;2022-10-04T08:58:58;13.90;99.90
1417;DHT22;703;51.162;13.574;2022-10-04T09:01:44;14.00;99.90
1417;DHT22;703;51.162;13.574;2022-10-04T09:10:33;14.10;99.90
1417;DHT22;703;51.162;13.574;2022-10-04T09:19:10;14.10;99.90
1417;DHT22;703;51.162;13.574;2022-10-04T09:27:11;14.80;99.90
1417;DHT22;703;51.162;13.574;2022-10-04T09:38:01;15.10;99.90
1417;DHT22;703;51.162;13.574;2022-10-04T09:40:56;15.30;99.90
1417;DHT22;703;51.162;13.574;2022-10-04T09:52:20;15.40;99.90
1417;DHT22;703;51.162;13.574;2022-10-04T09:57:42;16.40;99.90
1417;DHT22;703;51.162;13.574;2022-10-04T10:00:22;15.70;99.90
1417;DHT22;703;51.162;13.574;2022-10-04T10:03:29;15.80;99.90
1417;DHT22;703;51.162;13.574;2022-10-04T10:06:21;15.70;99.90
1417;DHT22;703;51.162;13.574;2022-10-04T10:18:41;15.60;99.90
1417;DHT22;703;51.162;13.574;2022-10-04T10:27:01;16.00;99.90
1417;DHT22;703;51.162;13.574;2022-10-04T10:29:50;16.40;99.90
1417;DHT22;703;51.162;13.574;2022-10-04T10:35:11;16.00;99.90
1417;DHT22;703;51.162;13.574;2022-10-04T10:40:51;16.90;99.90
1417;DHT22;703;51.162;13.574;2022-10-04T10:43:30;16.20;99.90
1417;DHT22;703;51.162;13.574;2022-10-04T11:00:12;16.10;99.90
1417;DHT22;703;51.162;13.574;2022-10-04T11:06:09;16.20;99.90
1417;DHT22;703;51.162;13.574;2022-10-04T11:09:19;16.10;99.90
1417;DHT22;703;51.162;13.574;2022-10-04T11:26:31;16.70;99.90
1417;DHT22;703;51.162;13.574;2022-10-04T11:54:47;17.00;99.90
1417;DHT22;703;51.162;13.574;2022-10-04T11:57:52;17.20;99.90
1417;DHT22;703;51.162;13.574;2022-10-04T12:00:21;17.00;99.90
1417;DHT22;703;51.162;13.574;2022-10-04T12:21:59;17.50;99.90
1417;DHT22;703;51.162;13.574;2022-10-04T12:27:41;17.90;99.90
1417;DHT22;703;51.162;13.574;2022-10-04T12:30:20;18.20;99.90
1417;DHT22;703;51.162;13.574;2022-10-04T12:32:52;17.60;99.90
1417;DHT22;703;51.162;13.574;2022-10-04T12:35:33;17.60;99.90
1417;DHT22;703;51.162;13.574;2022-10-04T12:41:56;17.60;99.90
1417;DHT22;703;51.162;13.574;2022-10-04T12:52:40;18.00;99.90
1417;DHT22;703;51.162;13.574;2022-10-04T12:58:01;18.40;99.90
1417;DHT22;703;51.162;13.574;2022-10-04T13:00:35;18.90;99.90
1417;DHT22;703;51.162;13.574;2022-10-04T13:25:06;19.60;99.90
1417;DHT22;703;51.162;13.574;2022-10-04T13:35:24;20.00;99.90
1417;DHT22;703;51.162;13.574;2022-10-04T13:38:04;20.10;99.90
1417;DHT22;703;51.162;13.574;2022-10-04T13:51:52;19.90;99.90
1417;DHT22;703;51.162;13.574;2022-10-04T13:57:51;20.00;99.90
1417;DHT22;703;51.162;13.574;2022-10-04T14:12:23;19.80;99.90
1417;DHT22;703;51.162;13.574;2022-10-04T14:17:49;20.40;99.90
1417;DHT22;703;51.162;13.574;2022-10-04T14:28:52;20.00;99.90
1417;DHT22;703;51.162;13.574;2022-10-04T14:31:56;20.30;99.90
1417;DHT22;703;51.162;13.574;2022-10-04T14:34:49;20.30;99.90
1417;DHT22;703;51.162;13.574;2022-10-04T14:45:27;20.10;99.90
1417;DHT22;703;51.162;13.574;2022-10-04T14:54:48;19.90;99.90
1417;DHT22;703;51.162;13.574;2022-10-04T15:10:59;19.50;99.90
1417;DHT22;703;51.162;13.574;2022-10-04T15:13:50;19.50;99.90
1417;DHT22;703;51.162;13.574;2022-10-04T15:16:45;19.30;99.90
1417;DHT22;703;51.162;13.574;2022-10-04T15:24:47;19.10;99.90
1417;DHT22;703;51.162;13.574;2022-10-04T15:47:08;18.00;99.90
1417;DHT22;703;51.162;13.574;2022-10-04T15:50:09;17.80;99.90
1417;DHT22;703;51.162;13.574;2022-10-04T15:55:09;17.50;99.90
1417;DHT22;703;51.162;13.574;2022-10-04T16:00:55;16.90;99.90
1417;DHT22;703;51.162;13.574;2022-10-04T16:03:33;16.90;99.90
1417;DHT22;703;51.162;13.574;2022-10-04T16:06:24;16.80;99.90
1417;DHT22;703;51.162;13.574;2022-10-04T16:12:02;16.50;99.90
1417;DHT22;703;51.162;13.574;2022-10-04T16:17:28;16.30;99.90
1417;DHT22;703;51.162;13.574;2022-10-04T16:25:51;15.90;99.90
1417;DHT22;703;51.162;13.574;2022-10-04T16:34:02;15.60;99.90
1417;DHT22;703;51.162;13.574;2022-10-04T16:37:32;15.50;99.90
1417;DHT22;703;51.162;13.574;2022-10-04T16:42:58;15.00;99.90
1417;DHT22;703;51.162;13.574;2022-10-04T16:48:07;14.60;99.90
1417;DHT22;703;51.162;13.574;2022-10-04T16:53:38;14.40;99.90
1417;DHT22;703;51.162;13.574;2022-10-04T16:56:25;14.10;99.90
1417;DHT22;703;51.162;13.574;2022-10-04T17:16:58;13.10;99.90
1417;DHT22;703;51.162;13.574;2022-10-04T17:19:35;13.00;99.90
1417;DHT22;703;51.162;13.574;2022-10-04T17:25:24;12.70;99.90
1417;DHT22;703;51.162;13.574;2022-10-04T17:27:56;12.60;99.90
1417;DHT22;703;51.162;13.574;2022-10-04T17:30:38;12.40;99.90
1417;DHT22;703;51.162;13.574;2022-10-04T17:33:11;12.40;99.90
1417;DHT22;703;51.162;13.574;2022-10-04T17:44:28;12.20;99.90
1417;DHT22;703;51.162;13.574;2022-10-04T17:47:29;12.10;99.90
1417;DHT22;703;51.162;13.574;2022-10-04T17:53:55;11.80;99.90
1417;DHT22;703;51.162;13.574;2022-10-04T17:59:45;11.60;99.90
1417;DHT22;703;51.162;13.574;2022-10-04T18:02:41;11.60;99.90
1417;DHT22;703;51.162;13.574;2022-10-04T18:05:28;11.60;99.90
1417;DHT22;703;51.162;13.574;2022-10-04T18:10:58;11.50;99.90
1417;DHT22;703;51.162;13.574;2022-10-04T18:13:44;11.40;99.90
1417;DHT22;703;51.162;13.574;2022-10-04T18:24:39;11.20;99.90
1417;DHT22;703;51.162;13.574;2022-10-04T18:27:22;11.10;99.90
1417;DHT22;703;51.162;13.574;2022-10-04T18:34:56;10.80;99.90
1417;DHT22;703;51.162;13.574;2022-10-04T18:37:32;10.70;99.90
1417;DHT22;703;51.162;13.574;2022-10-04T18:40:23;10.70;99.90
1417;DHT22;703;51.162;13.574;2022-10-04T18:42:55;10.60;99.90
1417;DHT22;703;51.162;13.574;2022-10-04T18:45:30;10.70;99.90
1417;DHT22;703;51.162;13.574;2022-10-04T18:47:59;10.70;99.90
1417;DHT22;703;51.162;13.574;2022-10-04T18:50:37;10.60;99.90
1417;DHT22;703;51.162;13.574;2022-10-04T19:16:09;10.10;99.90
1417;DHT22;703;51.162;13.574;2022-10-04T19:21:54;10.10;99.90
1417;DHT22;703;51.162;13.574;2022-10-04T19:27:31;9.90;99.90
1417;DHT22;703;51.162;13.574;2022-10-04T19:30:18;9.70;99.90
1417;DHT22;703;51.162;13.574;2022-10-04T19:43:58;9.70;99.90
1417;DHT22;703;51.162;13.574;2022-10-04T19:46:35;9.70;99.90
1417;DHT22;703;51.162;13.574;2022-10-04T19:49:19;9.60;99.90
1417;DHT22;703;51.162;13.574;2022-10-04T19:51:53;9.60;99.90
1417;DHT22;703;51.162;13.574;2022-10-04T19:54:27;9.60;99.90
1417;DHT22;703;51.162;13.574;2022-10-04T19:56:55;9.60;99.90
1417;DHT22;703;51.162;13.574;2022-10-04T20:01:54;9.60;99.90
1417;DHT22;703;51.162;13.574;2022-10-04T20:04:19;9.60;99.90
1417;DHT22;703;51.162;13.574;2022-10-04T20:13:03;9.50;99.90
1417;DHT22;703;51.162;13.574;2022-10-04T20:17:59;9.40;99.90
1417;DHT22;703;51.162;13.574;2022-10-04T20:23:08;9.40;99.90
1417;DHT22;703;51.162;13.574;2022-10-04T20:30:57;9.60;99.90
1417;DHT22;703;51.162;13.574;2022-10-04T20:43:59;9.30;99.90
1417;DHT22;703;51.162;13.574;2022-10-04T20:46:36;9.30;99.90
1417;DHT22;703;51.162;13.574;2022-10-04T20:49:15;9.30;99.90
1417;DHT22;703;51.162;13.574;2022-10-04T20:51:49;9.20;99.90
1417;DHT22;703;51.162;13.574;2022-10-04T20:54:16;9.10;99.90
1417;DHT22;703;51.162;13.574;2022-10-04T20:56:45;9.10;99.90
1417;DHT22;703;51.162;13.574;2022-10-04T20:59:14;9.10;99.90
1417;DHT22;703;51.162;13.574;2022-10-04T21:01:41;9.20;99.90
1417;DHT22;703;51.162;13.574;2022-10-04T21:04:28;9.20;99.90
1417;DHT22;703;51.162;13.574;2022-10-04T21:07:04;9.20;99.90
1417;DHT22;703;51.162;13.574;2022-10-04T21:09:31;9.30;99.90
1417;DHT22;703;51.162;13.574;2022-10-04T21:11:59;9.20;99.90
1417;DHT22;703;51.162;13.574;2022-10-04T21:14:31;9.20;99.90
1417;DHT22;703;51.162;13.574;2022-10-04T21:17:31;9.10;99.90
1417;DHT22;703;51.162;13.574;2022-10-04T21:19:49;9.10;99.90
1417;DHT22;703;51.162;13.574;2022-10-04T21:27:09;9.00;99.90
1417;DHT22;703;51.162;13.574;2022-10-04T21:29:38;8.90;99.90
1417;DHT22;703;51.162;13.574;2022-10-04T21:32:04;8.80;99.90
1417;DHT22;703;51.162;13.574;2022-10-04T21:34:30;8.80;99.90
1417;DHT22;703;51.162;13.574;2022-10-04T21:36:56;8.80;99.90
1417;DHT22;703;51.162;13.574;2022-10-04T21:39:23;8.80;99.90
1417;DHT22;703;51.162;13.574;2022-10-04T21:41:48;8.70;99.90
1417;DHT22;703;51.162;13.574;2022-10-04T21:44:14;8.70;99.90
1417;DHT22;703;51.162;13.574;2022-10-04T21:46:40;8.70;99.90
1417;DHT22;703;51.162;13.574;2022-10-04T21:49:06;8.60;99.90
1417;DHT22;703;51.162;13.574;2022-10-04T21:51:32;8.60;99.90
1417;DHT22;703;51.162;13.574;2022-10-04T21:54:03;8.60;99.90
1417;DHT22;703;51.162;13.574;2022-10-04T21:56:29;8.50;99.90
1417;DHT22;703;51.162;13.574;2022-10-04T21:58:55;8.50;99.90
1417;DHT22;703;51.162;13.574;2022-10-04T22:01:21;8.40;99.90
1417;DHT22;703;51.162;13.574;2022-10-04T22:03:46;8.40;99.90
1417;DHT22;703;51.162;13.574;2022-10-04T22:06:12;8.40;99.90
1417;DHT22;703;51.162;13.574;2022-10-04T22:08:37;8.40;99.90
1417;DHT22;703;51.162;13.574;2022-10-04T22:11:04;8.40;99.90
1417;DHT22;703;51.162;13.574;2022-10-04T22:13:29;8.40;99.90
1417;DHT22;703;51.162;13.574;2022-10-04T22:15:56;8.30;99.90
1417;DHT22;703;51.162;13.574;2022-10-04T22:18:22;8.30;99.90
1417;DHT22;703;51.162;13.574;2022-10-04T22:20:47;8.30;99.90
1417;DHT22;703;51.162;13.574;2022-10-04T22:23:17;8.20;99.90
1417;DHT22;703;51.162;13.574;2022-10-04T22:25:43;8.30;99.90
1417;DHT22;703;51.162;13.574;2022-10-04T22:28:23;8.20;99.90
1417;DHT22;703;51.162;13.574;2022-10-04T22:30:49;8.30;99.90
1417;DHT22;703;51.162;13.574;2022-10-04T22:35:51;8.20;99.90
1417;DHT22;703;51.162;13.574;2022-10-04T22:38:17;11.00;99.90
1417;DHT22;703;51.162;13.574;2022-10-04T22:40:43;8.50;99.90
1417;DHT22;703;51.162;13.574;2022-10-04T22:43:12;8.50;99.90
1417;DHT22;703;51.162;13.574;2022-10-04T22:45:39;8.60;99.90
1417;DHT22;703;51.162;13.574;2022-10-04T22:48:12;8.70;99.90
1417;DHT22;703;51.162;13.574;2022-10-04T22:50:39;8.70;99.90
1417;DHT22;703;51.162;13.574;2022-10-04T22:53:19;8.70;99.90
1417;DHT22;703;51.162;13.574;2022-10-04T22:55:47;8.90;99.90
1417;DHT22;703;51.162;13.574;2022-10-04T22:58:13;10.80;99.90
1417;DHT22;703;51.162;13.574;2022-10-04T23:00:40;9.40;99.90
1417;DHT22;703;51.162;13.574;2022-10-04T23:03:27;9.40;99.90
1417;DHT22;703;51.162;13.574;2022-10-04T23:05:55;9.30;99.90
1417;DHT22;703;51.162;13.574;2022-10-04T23:08:20;9.20;99.90
1417;DHT22;703;51.162;13.574;2022-10-04T23:10:46;9.10;99.90
1417;DHT22;703;51.162;13.574;2022-10-04T23:13:12;9.10;99.90
1417;DHT22;703;51.162;13.574;2022-10-04T23:15:38;9.10;99.90
1417;DHT22;703;51.162;13.574;2022-10-04T23:18:13;9.30;99.90
1417;DHT22;703;51.162;13.574;2022-10-04T23:20:40;9.20;99.90
1417;DHT22;703;51.162;13.574;2022-10-04T23:23:10;9.10;99.90
1417;DHT22;703;51.162;13.574;2022-10-04T23:25:39;9.00;99.90
1417;DHT22;703;51.162;13.574;2022-10-04T23:28:11;9.00;99.90
1417;DHT22;703;51.162;13.574;2022-10-04T23:30:37;9.10;99.90
1417;DHT22;703;51.162;13.574;2022-10-04T23:33:20;9.20;99.90
1417;DHT22;703;51.162;13.574;2022-10-04T23:35:46;9.00;99.90
1417;DHT22;703;51.162;13.574;2022-10-04T23:38:17;8.90;99.90
1417;DHT22;703;51.162;13.574;2022-10-04T23:40:43;8.90;99.90
1417;DHT22;703;51.162;13.574;2022-10-04T23:43:36;8.80;99.90
1417;DHT22;703;51.162;13.574;2022-10-04T23:46:10;8.80;99.90
1417;DHT22;703;51.162;13.574;2022-10-04T23:48:37;8.80;99.90
1417;DHT22;703;51.162;13.574;2022-10-04T23:51:03;8.70;99.90
1417;DHT22;703;51.162;13.574;2022-10-04T23:53:30;8.70;99.90
1417;DHT22;703;51.162;13.574;2022-10-04T23:56:01;8.70;99.90
1417;DHT22;703;51.162;13.574;2022-10-04T23:58:34;8.70;99.90
